createdAt,value
2019-03-08T00:01:05.163Z,12.27
2019-03-08T00:03:34.576Z,12.77
2019-03-08T00:06:04.309Z,12.87
2019-03-08T00:08:33.685Z,15.33
2019-03-08T00:11:04.007Z,14.67
2019-03-08T00:13:33.411Z,15.23
2019-03-08T00:16:02.870Z,13.97
2019-03-08T00:18:32.186Z,15.30
2019-03-08T00:21:01.606Z,16.13
2019-03-08T00:23:30.993Z,13.47
2019-03-08T00:26:00.347Z,13.63
2019-03-08T00:28:29.812Z,13.20
2019-03-08T00:30:59.205Z,13.20
2019-03-08T00:33:28.580Z,13.63
2019-03-08T00:35:58.016Z,17.03
2019-03-08T00:38:27.543Z,15.27
2019-03-08T00:40:56.916Z,14.43
2019-03-08T00:43:26.273Z,14.80
2019-03-08T00:45:55.647Z,15.13
2019-03-08T00:48:25.029Z,13.27
2019-03-08T00:50:54.394Z,14.30
2019-03-08T00:53:23.899Z,12.37
2019-03-08T00:55:53.275Z,13.00
2019-03-08T00:58:22.645Z,14.10
2019-03-08T01:00:52.141Z,11.93
2019-03-08T01:03:21.642Z,12.03
2019-03-08T01:05:51.048Z,13.77
2019-03-08T01:08:20.393Z,14.63
2019-03-08T01:10:49.767Z,14.70
2019-03-08T01:13:19.116Z,13.03
2019-03-08T01:15:48.498Z,12.73
2019-03-08T01:18:17.846Z,13.73
2019-03-08T01:20:47.403Z,12.97
2019-03-08T01:23:16.780Z,12.40
2019-03-08T01:25:46.184Z,12.00
2019-03-08T01:28:16.159Z,13.80
2019-03-08T01:30:45.862Z,13.03
2019-03-08T01:33:15.618Z,14.17
2019-03-08T01:35:44.997Z,12.40
2019-03-08T01:38:14.414Z,12.97
2019-03-08T01:40:43.819Z,12.80
2019-03-08T01:43:13.278Z,13.10
2019-03-08T01:45:42.674Z,13.03
2019-03-08T01:48:12.141Z,13.07
2019-03-08T01:50:41.561Z,12.87
2019-03-08T01:53:10.961Z,12.07
2019-03-08T01:55:40.421Z,12.13
2019-03-08T01:58:09.815Z,13.07
2019-03-08T02:00:40.798Z,12.77
2019-03-08T02:03:10.395Z,12.30
2019-03-08T02:05:39.845Z,12.90
2019-03-08T02:08:09.235Z,12.80
2019-03-08T02:10:38.764Z,12.83
2019-03-08T02:13:08.255Z,12.53
2019-03-08T02:15:37.679Z,12.60
2019-03-08T02:18:07.443Z,14.80
2019-03-08T02:20:36.806Z,17.03
2019-03-08T02:23:06.170Z,14.47
2019-03-08T02:25:35.622Z,12.80
2019-03-08T02:28:04.990Z,11.97
2019-03-08T02:30:34.419Z,12.43
2019-03-08T02:33:03.926Z,12.53
2019-03-08T02:35:33.281Z,13.50
2019-03-08T02:38:02.770Z,13.00
2019-03-08T02:40:33.848Z,13.63
2019-03-08T02:43:04.702Z,14.33
2019-03-08T02:45:34.179Z,14.17
2019-03-08T02:48:03.650Z,14.47
2019-03-08T02:50:33.036Z,15.13
2019-03-08T02:53:02.421Z,14.47
2019-03-08T02:55:32.088Z,15.73
2019-03-08T02:58:01.418Z,14.00
2019-03-08T03:00:35.706Z,21.07
2019-03-08T03:03:05.298Z,16.50
2019-03-08T03:05:34.707Z,14.10
2019-03-08T03:08:06.035Z,11.60
2019-03-08T03:10:35.461Z,13.30
2019-03-08T03:13:04.923Z,14.43
2019-03-08T03:15:34.432Z,18.17
2019-03-08T03:18:03.827Z,17.10
2019-03-08T03:20:33.189Z,14.80
2019-03-08T03:23:02.578Z,14.20
2019-03-08T03:25:32.035Z,13.37
2019-03-08T03:28:01.381Z,13.13
2019-03-08T03:30:30.797Z,13.03
2019-03-08T03:33:00.249Z,12.57
2019-03-08T03:35:30.099Z,16.27
2019-03-08T03:37:59.537Z,19.90
2019-03-08T03:40:28.962Z,15.83
2019-03-08T03:42:58.410Z,14.10
2019-03-08T03:45:27.781Z,14.73
2019-03-08T03:47:57.144Z,14.30
2019-03-08T03:50:26.564Z,16.17
2019-03-08T03:52:55.937Z,16.90
2019-03-08T03:55:25.475Z,19.53
2019-03-08T03:57:54.883Z,16.73
2019-03-08T04:00:24.436Z,14.43
2019-03-08T04:02:54.096Z,14.17
2019-03-08T04:05:23.539Z,15.00
2019-03-08T04:07:52.991Z,16.27
2019-03-08T04:10:22.368Z,16.03
2019-03-08T04:12:51.885Z,16.07
2019-03-08T04:15:21.431Z,18.50
2019-03-08T04:17:51.036Z,16.30
2019-03-08T04:20:20.677Z,17.23
2019-03-08T04:22:50.087Z,18.30
2019-03-08T04:25:19.487Z,18.23
2019-03-08T04:27:48.864Z,17.33
2019-03-08T04:30:18.282Z,17.13
2019-03-08T04:32:47.644Z,17.67
2019-03-08T04:35:17.025Z,17.93
2019-03-08T04:37:46.421Z,17.77
2019-03-08T04:40:15.813Z,17.63
2019-03-08T04:42:45.178Z,17.93
2019-03-08T04:45:15.380Z,18.17
2019-03-08T04:47:44.852Z,17.77
2019-03-08T04:50:14.391Z,16.77
2019-03-08T04:52:43.750Z,16.73
2019-03-08T04:55:14.245Z,15.87
2019-03-08T04:57:43.629Z,15.73
2019-03-08T05:00:14.277Z,13.47
2019-03-08T05:02:43.647Z,12.73
2019-03-08T05:05:13.394Z,14.37
2019-03-08T05:07:42.817Z,15.50
2019-03-08T05:10:14.030Z,13.90
2019-03-08T05:12:43.641Z,13.70
2019-03-08T05:15:13.405Z,15.07
2019-03-08T05:17:42.759Z,13.80
2019-03-08T05:20:12.358Z,14.60
2019-03-08T05:22:41.804Z,15.23
2019-03-08T05:25:11.186Z,15.30
2019-03-08T05:27:40.570Z,14.03
2019-03-08T05:30:10.816Z,14.47
2019-03-08T05:32:40.209Z,15.87
2019-03-08T05:35:09.608Z,14.73
2019-03-08T05:37:38.967Z,16.27
2019-03-08T05:40:08.678Z,15.67
2019-03-08T05:42:38.053Z,14.70
2019-03-08T05:45:07.899Z,15.77
2019-03-08T05:47:37.329Z,17.23
2019-03-08T05:50:07.250Z,25.37
2019-03-08T05:52:36.730Z,18.80
2019-03-08T05:55:06.516Z,21.60
2019-03-08T05:57:35.863Z,22.27
2019-03-08T06:00:06.276Z,22.37
2019-03-08T06:02:35.633Z,24.17
2019-03-08T06:05:05.392Z,22.63
2019-03-08T06:07:34.849Z,23.50
2019-03-08T06:10:04.649Z,25.33
2019-03-08T06:12:34.007Z,24.17
2019-03-08T06:15:03.465Z,25.87
2019-03-08T06:17:32.933Z,27.93
2019-03-08T06:20:02.476Z,29.17
2019-03-08T06:22:32.036Z,30.53
2019-03-08T06:25:01.546Z,32.63
2019-03-08T06:27:30.896Z,30.90
2019-03-08T06:30:00.410Z,31.10
2019-03-08T06:32:29.826Z,31.57
2019-03-08T06:34:59.208Z,30.47
2019-03-08T06:37:28.896Z,31.30
2019-03-08T06:39:59.467Z,28.97
2019-03-08T06:42:28.937Z,29.67
2019-03-08T06:44:58.290Z,31.33
2019-03-08T06:47:27.654Z,30.13
2019-03-08T06:49:57.009Z,29.63
2019-03-08T06:52:26.364Z,28.33
2019-03-08T06:54:55.708Z,27.47
2019-03-08T06:57:25.109Z,26.50
2019-03-08T06:59:58.705Z,25.20
2019-03-08T07:02:30.137Z,22.87
2019-03-08T07:04:59.312Z,23.90
2019-03-08T07:07:28.654Z,22.53
2019-03-08T07:09:58.111Z,22.77
2019-03-08T07:12:27.499Z,22.57
2019-03-08T07:14:56.889Z,22.03
2019-03-08T07:17:26.256Z,21.47
2019-03-08T07:20:14.341Z,21.20
2019-03-08T07:23:00.394Z,22.30
2019-03-08T07:25:54.417Z,23.03
2019-03-08T07:28:41.172Z,22.37
2019-03-08T07:31:25.713Z,22.63
2019-03-08T07:34:10.985Z,21.97
2019-03-08T07:36:51.458Z,22.23
2019-03-08T07:39:38.835Z,21.73
2019-03-08T07:42:27.133Z,21.87
2019-03-08T07:45:03.685Z,20.67
2019-03-08T07:47:51.962Z,21.37
2019-03-08T07:50:29.240Z,21.40
2019-03-08T07:53:09.765Z,20.40
2019-03-08T07:55:54.563Z,20.27
2019-03-08T07:58:51.568Z,17.20
2019-03-08T08:01:39.896Z,17.80
2019-03-08T08:04:25.981Z,16.70
2019-03-08T08:07:08.803Z,18.17
2019-03-08T08:09:57.120Z,22.80
2019-03-08T08:12:37.402Z,19.93
2019-03-08T08:15:24.630Z,20.30
2019-03-08T08:18:16.175Z,19.60
2019-03-08T08:21:19.570Z,18.60
2019-03-08T08:24:06.615Z,18.23
2019-03-08T08:27:03.931Z,17.57
2019-03-08T08:29:44.213Z,17.53
2019-03-08T08:32:38.390Z,18.47
2019-03-08T08:35:39.498Z,18.93
2019-03-08T08:38:15.272Z,18.67
2019-03-08T08:41:02.318Z,17.87
2019-03-08T08:43:41.234Z,18.53
2019-03-08T08:46:32.543Z,17.70
2019-03-08T08:49:19.732Z,18.37
2019-03-08T08:52:08.050Z,18.13
2019-03-08T08:55:05.360Z,18.27
2019-03-08T08:58:04.969Z,16.37
2019-03-08T09:01:11.770Z,16.13
2019-03-08T09:04:00.714Z,15.33
2019-03-08T09:06:47.800Z,16.80
2019-03-08T09:09:39.181Z,16.37
2019-03-08T09:12:13.975Z,16.33
2019-03-08T09:14:50.008Z,15.87
2019-03-08T09:17:38.324Z,16.27
2019-03-08T09:20:38.971Z,14.90
2019-03-08T09:23:33.161Z,15.53
2019-03-08T09:26:12.773Z,15.33
2019-03-08T09:29:04.282Z,15.27
2019-03-08T09:31:52.552Z,14.63
2019-03-08T09:34:33.300Z,13.90
2019-03-08T09:37:21.615Z,14.07
2019-03-08T09:40:25.008Z,14.87
2019-03-08T09:43:16.374Z,14.80
2019-03-08T09:46:04.464Z,14.43
2019-03-08T09:48:48.895Z,15.27
2019-03-08T09:51:39.137Z,14.93
2019-03-08T09:54:14.323Z,14.67
2019-03-08T09:57:01.321Z,15.17
2019-03-08T09:59:48.378Z,14.77
2019-03-08T10:02:34.143Z,16.17
2019-03-08T10:05:25.280Z,17.07
2019-03-08T10:08:19.380Z,16.97
2019-03-08T10:10:56.710Z,17.77
2019-03-08T10:13:54.392Z,16.50
2019-03-08T10:16:28.252Z,16.40
2019-03-08T10:19:23.550Z,15.10
2019-03-08T10:22:14.629Z,15.73
2019-03-08T10:25:03.398Z,16.20
2019-03-08T10:27:44.313Z,16.75
2019-03-08T10:30:28.106Z,16.65
2019-03-08T10:33:15.536Z,16.25
2019-03-08T10:36:04.387Z,16.62
2019-03-08T10:38:55.094Z,16.82
2019-03-08T10:41:43.407Z,17.02
2019-03-08T10:44:23.992Z,16.77
2019-03-08T10:47:13.850Z,16.27
2019-03-08T10:50:02.191Z,16.35
2019-03-08T10:52:38.584Z,15.60
2019-03-08T10:55:38.186Z,16.48
2019-03-08T10:58:29.624Z,15.63
2019-03-08T11:01:36.322Z,16.07
2019-03-08T11:04:14.811Z,16.12
2019-03-08T11:07:12.260Z,15.65
2019-03-08T11:10:09.764Z,15.40
2019-03-08T11:12:52.933Z,15.43
2019-03-08T11:15:39.884Z,14.98
2019-03-08T11:18:40.344Z,14.18
2019-03-08T11:21:27.982Z,13.65
2019-03-08T11:24:15.215Z,13.62
2019-03-08T11:27:05.183Z,12.73
2019-03-08T11:29:50.353Z,11.88
2019-03-08T11:32:41.708Z,12.47
2019-03-08T11:35:17.409Z,11.18
2019-03-08T11:37:59.615Z,10.72
2019-03-08T11:40:49.337Z,10.43
2019-03-08T11:43:44.318Z,11.22
2019-03-08T11:46:32.615Z,8.48
2019-03-08T11:49:16.047Z,7.75
2019-03-08T11:51:57.117Z,6.87
2019-03-08T11:54:51.797Z,7.12
2019-03-08T11:57:43.377Z,7.22
2019-03-08T12:00:38.095Z,8.33
2019-03-08T12:03:32.584Z,7.17
2019-03-08T12:06:15.091Z,7.33
2019-03-08T12:08:56.396Z,6.50
2019-03-08T12:11:50.237Z,6.22
2019-03-08T12:14:29.645Z,5.47
2019-03-08T12:17:27.163Z,6.20
2019-03-08T12:20:04.576Z,6.37
2019-03-08T12:22:56.197Z,7.53
2019-03-08T12:25:44.496Z,5.40
2019-03-08T12:28:31.623Z,5.53
2019-03-08T12:31:18.555Z,5.83
2019-03-08T12:34:09.971Z,6.10
2019-03-08T12:37:01.357Z,6.05
2019-03-08T12:39:49.666Z,6.53
2019-03-08T12:42:44.057Z,6.50
2019-03-08T12:45:37.885Z,4.62
2019-03-08T12:48:23.652Z,4.20
2019-03-08T12:51:15.988Z,5.45
2019-03-08T12:54:03.207Z,6.10
2019-03-08T12:57:06.816Z,5.42
2019-03-08T13:00:04.405Z,7.42
2019-03-08T13:03:10.820Z,5.05
2019-03-08T13:05:59.171Z,4.72
2019-03-08T13:08:59.555Z,5.50
2019-03-08T13:11:33.159Z,5.33
2019-03-08T13:14:00.022Z,5.22
2019-03-08T13:16:29.408Z,4.92
2019-03-08T13:18:58.718Z,4.60
2019-03-08T13:21:28.099Z,4.12
2019-03-08T13:23:57.455Z,4.28
2019-03-08T13:26:27.022Z,4.85
2019-03-08T13:28:59.105Z,3.92
2019-03-08T13:31:28.513Z,4.33
2019-03-08T13:33:57.930Z,5.10
2019-03-08T13:36:27.628Z,4.53
2019-03-08T13:38:57.032Z,3.33
2019-03-08T13:41:26.411Z,3.75
2019-03-08T13:43:55.777Z,3.60
2019-03-08T13:46:25.163Z,3.30
2019-03-08T13:48:54.539Z,3.85
2019-03-08T13:51:23.896Z,3.37
2019-03-08T13:53:53.660Z,3.58
2019-03-08T13:56:23.064Z,4.37
2019-03-08T13:58:53.021Z,4.10
2019-03-08T14:01:22.451Z,3.95
2019-03-08T14:03:51.894Z,4.05
2019-03-08T14:06:21.272Z,3.90
2019-03-08T14:08:50.703Z,4.17
2019-03-08T14:11:20.096Z,3.72
2019-03-08T14:13:49.498Z,3.85
2019-03-08T14:16:18.859Z,3.58
2019-03-08T14:18:48.204Z,3.37
2019-03-08T14:21:17.745Z,3.70
2019-03-08T14:23:47.300Z,3.05
2019-03-08T14:26:16.673Z,3.02
2019-03-08T14:28:46.048Z,3.10
2019-03-08T14:31:26.604Z,2.80
2019-03-08T14:33:56.144Z,3.12
2019-03-08T14:36:25.595Z,3.30
2019-03-08T14:38:54.978Z,3.00
2019-03-08T14:41:46.187Z,2.87
2019-03-08T14:44:22.799Z,3.17
2019-03-08T14:47:03.322Z,2.95
2019-03-08T14:49:32.692Z,3.10
2019-03-08T14:52:03.005Z,2.87
2019-03-08T14:54:32.377Z,2.90
2019-03-08T14:57:01.857Z,2.70
2019-03-08T14:59:31.230Z,3.27
2019-03-08T15:02:00.636Z,2.92
2019-03-08T15:04:33.192Z,2.80
2019-03-08T15:07:01.314Z,3.30
2019-03-08T15:09:32.135Z,3.20
2019-03-08T15:12:01.523Z,4.13
2019-03-08T15:14:33.908Z,2.90
2019-03-08T15:17:08.836Z,3.00
2019-03-08T15:19:36.238Z,3.20
2019-03-08T15:22:04.155Z,2.90
2019-03-08T15:24:38.398Z,3.27
2019-03-08T15:27:04.736Z,3.13
2019-03-08T15:29:34.389Z,3.63
2019-03-08T15:32:03.766Z,3.87
2019-03-08T15:34:33.143Z,3.60
2019-03-08T15:37:02.539Z,3.70
2019-03-08T15:39:32.010Z,3.83
2019-03-08T15:42:02.430Z,4.23
2019-03-08T15:44:32.583Z,4.10
2019-03-08T15:47:01.954Z,3.57
2019-03-08T15:49:31.721Z,4.30
2019-03-08T15:52:03.564Z,4.40
2019-03-08T15:54:32.309Z,4.60
2019-03-08T15:57:01.677Z,4.00
2019-03-08T15:59:31.134Z,4.50
2019-03-08T16:02:02.095Z,4.30
2019-03-08T16:04:31.542Z,4.50
2019-03-08T16:07:00.866Z,5.00
2019-03-08T16:09:30.261Z,7.83
2019-03-08T16:12:00.534Z,4.60
2019-03-08T16:14:29.903Z,4.80
2019-03-08T16:16:59.330Z,4.50
2019-03-08T16:19:28.723Z,4.80
2019-03-08T16:21:58.100Z,4.60
2019-03-08T16:24:31.078Z,4.43
2019-03-08T16:27:01.879Z,4.67
2019-03-08T16:29:29.721Z,4.70
2019-03-08T16:32:05.035Z,4.70
2019-03-08T16:34:34.599Z,4.73
2019-03-08T16:37:14.185Z,4.80
2019-03-08T16:40:11.219Z,4.33
2019-03-08T16:42:56.153Z,5.07
2019-03-08T16:45:54.838Z,5.80
2019-03-08T16:48:36.223Z,6.40
2019-03-08T16:51:30.257Z,6.20
2019-03-08T16:54:16.977Z,6.03
2019-03-08T16:57:00.870Z,13.10
2019-03-08T16:59:54.963Z,6.37
2019-03-08T17:02:55.605Z,5.27
2019-03-08T17:05:39.179Z,5.40
2019-03-08T17:08:18.056Z,5.23
2019-03-08T17:11:12.459Z,5.00
2019-03-08T17:14:06.764Z,4.77
2019-03-08T17:17:04.148Z,5.30
2019-03-08T17:19:42.268Z,6.53
2019-03-08T17:22:33.618Z,5.53
2019-03-08T17:25:20.586Z,6.33
2019-03-08T17:28:10.132Z,6.30
2019-03-08T17:30:51.974Z,7.33
2019-03-08T17:33:36.434Z,6.30
2019-03-08T17:36:16.351Z,7.03
2019-03-08T17:39:08.209Z,6.37
2019-03-08T17:42:08.552Z,6.67
2019-03-08T17:44:48.427Z,7.57
2019-03-08T17:47:29.818Z,6.23
2019-03-08T17:50:17.114Z,6.93
2019-03-08T17:53:11.410Z,7.17
2019-03-08T17:56:03.586Z,8.03
2019-03-08T17:58:40.619Z,8.00
2019-03-08T18:01:38.114Z,8.10
2019-03-08T18:04:25.311Z,7.20
2019-03-08T18:07:13.636Z,6.57
2019-03-08T18:10:01.941Z,8.10
2019-03-08T18:12:49.045Z,8.10
2019-03-08T18:15:26.572Z,9.17
2019-03-08T18:18:04.681Z,8.33
2019-03-08T18:20:45.978Z,9.07
2019-03-08T18:23:23.146Z,9.83
2019-03-08T18:26:10.296Z,12.23
2019-03-08T18:29:07.667Z,10.50
2019-03-08T18:31:49.572Z,8.67
2019-03-08T18:34:36.770Z,8.87
2019-03-08T18:37:23.966Z,8.60
2019-03-08T18:40:28.083Z,10.07
2019-03-08T18:43:25.242Z,8.47
2019-03-08T18:46:19.619Z,8.83
2019-03-08T18:48:59.591Z,7.80
2019-03-08T18:51:48.671Z,9.13
2019-03-08T18:54:42.982Z,9.10
2019-03-08T18:57:29.904Z,8.13
2019-03-08T19:00:18.683Z,7.07
2019-03-08T19:03:05.676Z,5.80
2019-03-08T19:05:57.112Z,6.60
2019-03-08T19:08:34.583Z,6.77
2019-03-08T19:11:38.333Z,8.23
2019-03-08T19:14:17.612Z,7.87
2019-03-08T19:17:08.087Z,8.33
2019-03-08T19:19:54.422Z,7.73
2019-03-08T19:22:48.740Z,8.70
2019-03-08T19:25:43.033Z,10.03
2019-03-08T19:28:40.998Z,9.77
2019-03-08T19:31:25.532Z,15.87
2019-03-08T19:34:02.558Z,11.47
2019-03-08T19:36:40.841Z,14.83
2019-03-08T19:39:29.126Z,12.63
2019-03-08T19:42:06.581Z,7.87
2019-03-08T19:45:00.790Z,8.00
2019-03-08T19:48:05.295Z,7.83
2019-03-08T19:50:53.644Z,10.77
2019-03-08T19:53:47.967Z,9.70
2019-03-08T19:56:28.100Z,9.40
2019-03-08T19:59:25.572Z,10.37
2019-03-08T20:02:12.426Z,11.30
2019-03-08T20:04:51.508Z,12.70
2019-03-08T20:07:38.235Z,10.33
2019-03-08T20:10:25.932Z,10.43
2019-03-08T20:13:13.000Z,10.93
2019-03-08T20:15:58.197Z,10.43
2019-03-08T20:18:45.692Z,12.67
2019-03-08T20:21:28.318Z,10.83
2019-03-08T20:24:09.079Z,10.47
2019-03-08T20:27:00.445Z,11.10
2019-03-08T20:29:51.863Z,10.33
2019-03-08T20:32:46.244Z,11.07
2019-03-08T20:35:32.809Z,10.70
2019-03-08T20:38:29.860Z,11.60
2019-03-08T20:41:24.832Z,10.93
2019-03-08T20:44:16.182Z,11.73
2019-03-08T20:47:04.544Z,10.97
2019-03-08T20:49:33.921Z,11.90
2019-03-08T20:52:03.300Z,26.57
2019-03-08T20:54:32.700Z,14.63
2019-03-08T20:57:02.086Z,12.23
2019-03-08T20:59:31.554Z,11.60
2019-03-08T21:02:00.936Z,12.20
2019-03-08T21:04:30.298Z,10.97
2019-03-08T21:06:59.657Z,10.77
2019-03-08T21:09:29.037Z,11.00
2019-03-08T21:11:58.459Z,11.57
2019-03-08T21:14:27.839Z,11.60
2019-03-08T21:16:57.171Z,10.77
2019-03-08T21:19:28.060Z,11.53
2019-03-08T21:21:57.409Z,11.73
2019-03-08T21:24:26.840Z,12.87
2019-03-08T21:26:56.286Z,13.40
2019-03-08T21:29:25.675Z,12.63
2019-03-08T21:31:55.124Z,13.13
2019-03-08T21:34:24.571Z,11.17
2019-03-08T21:36:53.943Z,13.03
2019-03-08T21:39:23.332Z,12.90
2019-03-08T21:41:55.052Z,12.77
2019-03-08T21:44:24.405Z,12.90
2019-03-08T21:46:53.817Z,11.97
2019-03-08T21:49:23.180Z,11.83
2019-03-08T21:51:54.850Z,13.00
2019-03-08T21:54:24.190Z,12.80
2019-03-08T21:56:53.569Z,12.07
2019-03-08T21:59:22.975Z,12.10
2019-03-08T22:01:54.357Z,11.93
2019-03-08T22:04:31.673Z,11.23
2019-03-08T22:07:01.042Z,13.37
2019-03-08T22:09:47.556Z,13.07
2019-03-08T22:12:16.950Z,12.67
2019-03-08T22:14:46.338Z,12.50
2019-03-08T22:17:15.889Z,11.67
2019-03-08T22:19:45.459Z,13.27
2019-03-08T22:22:14.856Z,13.37
2019-03-08T22:24:44.271Z,13.13
2019-03-08T22:27:13.640Z,13.30
2019-03-08T22:29:43.046Z,13.37
2019-03-08T22:32:12.745Z,12.73
2019-03-08T22:34:42.122Z,13.27
2019-03-08T22:37:11.520Z,13.47
2019-03-08T22:39:40.876Z,13.00
2019-03-08T22:42:10.302Z,14.00
2019-03-08T22:44:39.921Z,13.10
2019-03-08T22:47:09.280Z,11.80
2019-03-08T22:49:38.633Z,13.47
2019-03-08T22:52:08.058Z,14.77
2019-03-08T22:54:37.464Z,15.33
2019-03-08T22:57:06.857Z,14.77
2019-03-08T22:59:36.274Z,14.07
2019-03-08T23:02:10.258Z,14.07
2019-03-08T23:04:39.634Z,13.10
2019-03-08T23:07:09.021Z,14.67
2019-03-08T23:09:38.657Z,13.60
2019-03-08T23:12:08.061Z,12.53
2019-03-08T23:14:37.468Z,11.43
2019-03-08T23:17:06.836Z,10.73
2019-03-08T23:19:36.217Z,12.13
2019-03-08T23:22:05.895Z,12.07
2019-03-08T23:24:35.283Z,11.67
2019-03-08T23:27:16.231Z,11.90
2019-03-08T23:29:49.750Z,11.43
2019-03-08T23:32:31.473Z,11.60
2019-03-08T23:35:00.792Z,13.23
2019-03-08T23:37:30.172Z,12.67
2019-03-08T23:39:59.524Z,11.67
2019-03-08T23:42:29.375Z,10.83
2019-03-08T23:44:58.759Z,10.90
2019-03-08T23:47:28.103Z,11.03
2019-03-08T23:49:57.529Z,10.43
2019-03-08T23:52:26.919Z,11.43
2019-03-08T23:54:56.477Z,11.00
2019-03-08T23:57:25.828Z,10.97
2019-03-08T23:59:55.158Z,7.77
